sensor_id;sensor_type;location;lat;lon;timestamp;P1;durP1;ratioP1;P2;durP2;ratioP2
44165;SDS011;30476;53.468;9.826;2024-02-16T00:01:59;8.90;;;1.43;;
44165;SDS011;30476;53.468;9.826;2024-02-16T00:04:26;1.40;;;1.30;;
44165;SDS011;30476;53.468;9.826;2024-02-16T00:06:52;1.30;;;1.20;;
44165;SDS011;30476;53.468;9.826;2024-02-16T00:09:18;1.20;;;1.20;;
44165;SDS011;30476;53.468;9.826;2024-02-16T00:11:44;1.30;;;1.20;;
44165;SDS011;30476;53.468;9.826;2024-02-16T00:14:10;0.83;;;0.83;;
44165;SDS011;30476;53.468;9.826;2024-02-16T00:16:36;1.20;;;1.10;;
44165;SDS011;30476;53.468;9.826;2024-02-16T00:19:02;1.20;;;1.10;;
44165;SDS011;30476;53.468;9.826;2024-02-16T00:21:28;2.20;;;0.90;;
44165;SDS011;30476;53.468;9.826;2024-02-16T00:23:54;1.33;;;1.23;;
44165;SDS011;30476;53.468;9.826;2024-02-16T00:26:20;3.37;;;1.27;;
44165;SDS011;30476;53.468;9.826;2024-02-16T00:28:46;1.10;;;1.10;;
44165;SDS011;30476;53.468;9.826;2024-02-16T00:31:12;1.00;;;0.80;;
44165;SDS011;30476;53.468;9.826;2024-02-16T00:33:38;5.53;;;1.57;;
44165;SDS011;30476;53.468;9.826;2024-02-16T00:36:04;2.53;;;1.00;;
44165;SDS011;30476;53.468;9.826;2024-02-16T00:38:29;1.10;;;1.10;;
44165;SDS011;30476;53.468;9.826;2024-02-16T00:40:55;0.90;;;0.90;;
44165;SDS011;30476;53.468;9.826;2024-02-16T00:43:21;1.13;;;1.03;;
44165;SDS011;30476;53.468;9.826;2024-02-16T00:45:47;1.60;;;1.30;;
44165;SDS011;30476;53.468;9.826;2024-02-16T00:48:13;1.23;;;1.13;;
44165;SDS011;30476;53.468;9.826;2024-02-16T00:50:39;1.30;;;1.07;;
44165;SDS011;30476;53.468;9.826;2024-02-16T00:53:08;1.23;;;1.00;;
44165;SDS011;30476;53.468;9.826;2024-02-16T00:55:33;0.90;;;0.90;;
44165;SDS011;30476;53.468;9.826;2024-02-16T00:57:59;3.13;;;1.30;;
44165;SDS011;30476;53.468;9.826;2024-02-16T01:00:25;1.03;;;1.00;;
44165;SDS011;30476;53.468;9.826;2024-02-16T01:02:51;1.40;;;0.77;;
44165;SDS011;30476;53.468;9.826;2024-02-16T01:05:20;1.57;;;0.80;;
44165;SDS011;30476;53.468;9.826;2024-02-16T01:07:48;1.23;;;1.00;;
44165;SDS011;30476;53.468;9.826;2024-02-16T01:10:14;2.60;;;1.23;;
44165;SDS011;30476;53.468;9.826;2024-02-16T01:12:39;1.13;;;0.90;;
44165;SDS011;30476;53.468;9.826;2024-02-16T01:15:05;1.23;;;1.07;;
44165;SDS011;30476;53.468;9.826;2024-02-16T01:17:31;2.40;;;0.97;;
44165;SDS011;30476;53.468;9.826;2024-02-16T01:20:00;0.87;;;0.87;;
44165;SDS011;30476;53.468;9.826;2024-02-16T01:22:25;1.10;;;1.00;;
44165;SDS011;30476;53.468;9.826;2024-02-16T01:24:54;1.20;;;1.00;;
44165;SDS011;30476;53.468;9.826;2024-02-16T01:27:20;2.30;;;1.40;;
44165;SDS011;30476;53.468;9.826;2024-02-16T01:29:46;1.10;;;1.00;;
44165;SDS011;30476;53.468;9.826;2024-02-16T01:32:12;1.47;;;1.37;;
44165;SDS011;30476;53.468;9.826;2024-02-16T01:34:39;0.77;;;0.77;;
44165;SDS011;30476;53.468;9.826;2024-02-16T01:37:05;2.00;;;1.13;;
44165;SDS011;30476;53.468;9.826;2024-02-16T01:39:30;1.20;;;1.10;;
44165;SDS011;30476;53.468;9.826;2024-02-16T01:41:56;2.10;;;1.00;;
44165;SDS011;30476;53.468;9.826;2024-02-16T01:44:22;0.80;;;0.80;;
44165;SDS011;30476;53.468;9.826;2024-02-16T01:46:48;1.20;;;0.90;;
44165;SDS011;30476;53.468;9.826;2024-02-16T01:49:14;1.43;;;1.07;;
44165;SDS011;30476;53.468;9.826;2024-02-16T01:51:40;1.13;;;0.80;;
44165;SDS011;30476;53.468;9.826;2024-02-16T01:54:07;0.90;;;0.90;;
44165;SDS011;30476;53.468;9.826;2024-02-16T01:56:33;2.30;;;1.10;;
44165;SDS011;30476;53.468;9.826;2024-02-16T01:58:59;1.23;;;1.17;;
44165;SDS011;30476;53.468;9.826;2024-02-16T02:01:25;1.20;;;1.10;;
44165;SDS011;30476;53.468;9.826;2024-02-16T02:03:51;1.10;;;1.10;;
44165;SDS011;30476;53.468;9.826;2024-02-16T02:06:16;0.77;;;0.77;;
44165;SDS011;30476;53.468;9.826;2024-02-16T02:08:43;1.60;;;1.20;;
44165;SDS011;30476;53.468;9.826;2024-02-16T02:11:09;3.47;;;0.93;;
44165;SDS011;30476;53.468;9.826;2024-02-16T02:13:34;1.43;;;1.00;;
44165;SDS011;30476;53.468;9.826;2024-02-16T02:16:00;1.27;;;0.97;;
44165;SDS011;30476;53.468;9.826;2024-02-16T02:18:28;2.10;;;1.00;;
44165;SDS011;30476;53.468;9.826;2024-02-16T02:20:54;3.73;;;1.27;;
44165;SDS011;30476;53.468;9.826;2024-02-16T02:23:20;1.40;;;0.90;;
44165;SDS011;30476;53.468;9.826;2024-02-16T02:25:46;0.90;;;0.90;;
44165;SDS011;30476;53.468;9.826;2024-02-16T02:28:14;1.17;;;1.10;;
44165;SDS011;30476;53.468;9.826;2024-02-16T02:30:41;0.80;;;0.80;;
44165;SDS011;30476;53.468;9.826;2024-02-16T02:33:07;0.90;;;0.90;;
44165;SDS011;30476;53.468;9.826;2024-02-16T02:35:34;1.90;;;1.07;;
44165;SDS011;30476;53.468;9.826;2024-02-16T02:38:00;1.10;;;1.00;;
44165;SDS011;30476;53.468;9.826;2024-02-16T02:40:26;1.00;;;1.00;;
44165;SDS011;30476;53.468;9.826;2024-02-16T02:42:52;1.00;;;1.00;;
44165;SDS011;30476;53.468;9.826;2024-02-16T02:45:18;0.90;;;0.90;;
44165;SDS011;30476;53.468;9.826;2024-02-16T02:47:44;1.10;;;0.97;;
44165;SDS011;30476;53.468;9.826;2024-02-16T02:50:11;1.57;;;0.97;;
44165;SDS011;30476;53.468;9.826;2024-02-16T02:52:37;2.00;;;1.33;;
44165;SDS011;30476;53.468;9.826;2024-02-16T02:55:03;1.13;;;1.00;;
44165;SDS011;30476;53.468;9.826;2024-02-16T02:57:29;2.80;;;1.00;;
44165;SDS011;30476;53.468;9.826;2024-02-16T03:00:05;1.00;;;1.00;;
44165;SDS011;30476;53.468;9.826;2024-02-16T03:02:36;1.00;;;1.00;;
44165;SDS011;30476;53.468;9.826;2024-02-16T03:05:03;0.80;;;0.80;;
44165;SDS011;30476;53.468;9.826;2024-02-16T03:07:29;0.97;;;0.90;;
44165;SDS011;30476;53.468;9.826;2024-02-16T03:09:55;1.27;;;1.00;;
44165;SDS011;30476;53.468;9.826;2024-02-16T03:12:21;1.30;;;1.00;;
44165;SDS011;30476;53.468;9.826;2024-02-16T03:14:47;1.30;;;1.20;;
44165;SDS011;30476;53.468;9.826;2024-02-16T03:17:13;2.90;;;1.10;;
44165;SDS011;30476;53.468;9.826;2024-02-16T03:19:38;1.10;;;1.00;;
44165;SDS011;30476;53.468;9.826;2024-02-16T03:22:04;1.00;;;1.00;;
44165;SDS011;30476;53.468;9.826;2024-02-16T03:24:30;4.20;;;1.13;;
44165;SDS011;30476;53.468;9.826;2024-02-16T03:26:56;1.13;;;1.00;;
44165;SDS011;30476;53.468;9.826;2024-02-16T03:29:22;1.20;;;1.10;;
44165;SDS011;30476;53.468;9.826;2024-02-16T03:31:47;0.80;;;0.80;;
44165;SDS011;30476;53.468;9.826;2024-02-16T03:34:15;3.27;;;1.13;;
44165;SDS011;30476;53.468;9.826;2024-02-16T03:36:41;2.00;;;1.10;;
44165;SDS011;30476;53.468;9.826;2024-02-16T03:39:06;1.13;;;1.10;;
44165;SDS011;30476;53.468;9.826;2024-02-16T03:41:34;1.37;;;1.00;;
44165;SDS011;30476;53.468;9.826;2024-02-16T03:44:00;1.27;;;0.90;;
44165;SDS011;30476;53.468;9.826;2024-02-16T03:46:26;2.13;;;1.13;;
44165;SDS011;30476;53.468;9.826;2024-02-16T03:48:52;1.77;;;1.20;;
44165;SDS011;30476;53.468;9.826;2024-02-16T03:51:18;1.83;;;0.90;;
44165;SDS011;30476;53.468;9.826;2024-02-16T03:53:44;1.47;;;1.07;;
44165;SDS011;30476;53.468;9.826;2024-02-16T03:56:11;2.97;;;0.93;;
44165;SDS011;30476;53.468;9.826;2024-02-16T03:58:37;1.73;;;0.90;;
44165;SDS011;30476;53.468;9.826;2024-02-16T04:01:03;0.90;;;0.90;;
44165;SDS011;30476;53.468;9.826;2024-02-16T04:03:32;1.00;;;1.00;;
44165;SDS011;30476;53.468;9.826;2024-02-16T04:05:57;1.07;;;0.97;;
44165;SDS011;30476;53.468;9.826;2024-02-16T04:08:25;0.80;;;0.80;;
44165;SDS011;30476;53.468;9.826;2024-02-16T04:10:50;1.83;;;1.00;;
44165;SDS011;30476;53.468;9.826;2024-02-16T04:13:16;0.80;;;0.80;;
44165;SDS011;30476;53.468;9.826;2024-02-16T04:15:42;3.60;;;1.30;;
44165;SDS011;30476;53.468;9.826;2024-02-16T04:18:08;0.90;;;0.90;;
44165;SDS011;30476;53.468;9.826;2024-02-16T04:20:34;1.70;;;1.00;;
44165;SDS011;30476;53.468;9.826;2024-02-16T04:23:01;1.67;;;1.17;;
44165;SDS011;30476;53.468;9.826;2024-02-16T04:25:27;1.03;;;1.03;;
44165;SDS011;30476;53.468;9.826;2024-02-16T04:27:53;1.00;;;0.90;;
44165;SDS011;30476;53.468;9.826;2024-02-16T04:30:18;0.90;;;0.90;;
44165;SDS011;30476;53.468;9.826;2024-02-16T04:32:45;1.30;;;1.20;;
44165;SDS011;30476;53.468;9.826;2024-02-16T04:35:10;1.17;;;1.07;;
44165;SDS011;30476;53.468;9.826;2024-02-16T04:37:37;1.13;;;0.83;;
44165;SDS011;30476;53.468;9.826;2024-02-16T04:40:05;1.37;;;1.03;;
44165;SDS011;30476;53.468;9.826;2024-02-16T04:42:31;1.10;;;0.93;;
44165;SDS011;30476;53.468;9.826;2024-02-16T04:44:57;1.53;;;0.90;;
44165;SDS011;30476;53.468;9.826;2024-02-16T04:47:25;0.80;;;0.80;;
44165;SDS011;30476;53.468;9.826;2024-02-16T04:49:50;1.10;;;1.00;;
44165;SDS011;30476;53.468;9.826;2024-02-16T04:52:16;1.20;;;1.10;;
44165;SDS011;30476;53.468;9.826;2024-02-16T04:54:42;6.27;;;0.90;;
44165;SDS011;30476;53.468;9.826;2024-02-16T04:57:08;1.00;;;1.00;;
44165;SDS011;30476;53.468;9.826;2024-02-16T04:59:34;1.90;;;0.70;;
44165;SDS011;30476;53.468;9.826;2024-02-16T05:01:59;1.10;;;1.00;;
44165;SDS011;30476;53.468;9.826;2024-02-16T05:04:25;7.03;;;1.00;;
44165;SDS011;30476;53.468;9.826;2024-02-16T05:06:51;1.00;;;0.90;;
44165;SDS011;30476;53.468;9.826;2024-02-16T05:09:17;1.20;;;1.00;;
44165;SDS011;30476;53.468;9.826;2024-02-16T05:11:44;0.97;;;0.97;;
44165;SDS011;30476;53.468;9.826;2024-02-16T05:14:11;0.70;;;0.70;;
44165;SDS011;30476;53.468;9.826;2024-02-16T05:16:46;1.00;;;0.90;;
44165;SDS011;30476;53.468;9.826;2024-02-16T05:19:12;1.03;;;1.03;;
44165;SDS011;30476;53.468;9.826;2024-02-16T05:21:38;0.97;;;0.93;;
44165;SDS011;30476;53.468;9.826;2024-02-16T05:24:04;1.00;;;0.90;;
44165;SDS011;30476;53.468;9.826;2024-02-16T05:26:30;2.50;;;0.80;;
44165;SDS011;30476;53.468;9.826;2024-02-16T05:28:56;1.30;;;1.07;;
44165;SDS011;30476;53.468;9.826;2024-02-16T05:31:22;0.90;;;0.90;;
44165;SDS011;30476;53.468;9.826;2024-02-16T05:33:48;3.43;;;1.00;;
44165;SDS011;30476;53.468;9.826;2024-02-16T05:36:21;2.10;;;0.90;;
44165;SDS011;30476;53.468;9.826;2024-02-16T05:38:52;2.17;;;0.97;;
44165;SDS011;30476;53.468;9.826;2024-02-16T05:41:20;0.87;;;0.87;;
44165;SDS011;30476;53.468;9.826;2024-02-16T05:43:45;1.20;;;1.10;;
44165;SDS011;30476;53.468;9.826;2024-02-16T05:46:14;1.57;;;0.90;;
44165;SDS011;30476;53.468;9.826;2024-02-16T05:48:41;1.00;;;0.90;;
44165;SDS011;30476;53.468;9.826;2024-02-16T05:51:07;1.50;;;1.00;;
44165;SDS011;30476;53.468;9.826;2024-02-16T05:53:34;0.80;;;0.80;;
44165;SDS011;30476;53.468;9.826;2024-02-16T05:56:00;1.57;;;0.83;;
44165;SDS011;30476;53.468;9.826;2024-02-16T05:58:26;1.23;;;0.73;;
44165;SDS011;30476;53.468;9.826;2024-02-16T06:00:53;2.33;;;0.80;;
44165;SDS011;30476;53.468;9.826;2024-02-16T06:03:19;1.30;;;1.20;;
44165;SDS011;30476;53.468;9.826;2024-02-16T06:05:46;0.97;;;0.97;;
44165;SDS011;30476;53.468;9.826;2024-02-16T06:08:12;1.17;;;1.00;;
44165;SDS011;30476;53.468;9.826;2024-02-16T06:10:38;0.80;;;0.80;;
44165;SDS011;30476;53.468;9.826;2024-02-16T06:13:05;0.93;;;0.90;;
44165;SDS011;30476;53.468;9.826;2024-02-16T06:15:31;1.93;;;1.00;;
44165;SDS011;30476;53.468;9.826;2024-02-16T06:17:59;0.80;;;0.73;;
44165;SDS011;30476;53.468;9.826;2024-02-16T06:20:27;0.97;;;0.90;;
44165;SDS011;30476;53.468;9.826;2024-02-16T06:22:52;0.93;;;0.93;;
44165;SDS011;30476;53.468;9.826;2024-02-16T06:25:18;0.63;;;0.63;;
44165;SDS011;30476;53.468;9.826;2024-02-16T06:27:44;1.03;;;0.70;;
44165;SDS011;30476;53.468;9.826;2024-02-16T06:30:10;0.97;;;0.97;;
44165;SDS011;30476;53.468;9.826;2024-02-16T06:32:38;0.83;;;0.83;;
44165;SDS011;30476;53.468;9.826;2024-02-16T06:35:06;1.10;;;1.00;;
44165;SDS011;30476;53.468;9.826;2024-02-16T06:37:33;1.77;;;0.80;;
44165;SDS011;30476;53.468;9.826;2024-02-16T06:39:59;1.00;;;0.90;;
44165;SDS011;30476;53.468;9.826;2024-02-16T06:42:24;0.90;;;0.90;;
44165;SDS011;30476;53.468;9.826;2024-02-16T06:44:50;1.67;;;0.80;;
44165;SDS011;30476;53.468;9.826;2024-02-16T06:47:16;1.13;;;1.00;;
44165;SDS011;30476;53.468;9.826;2024-02-16T06:49:42;0.80;;;0.80;;
44165;SDS011;30476;53.468;9.826;2024-02-16T06:52:08;1.63;;;0.90;;
44165;SDS011;30476;53.468;9.826;2024-02-16T06:54:35;1.10;;;1.00;;
44165;SDS011;30476;53.468;9.826;2024-02-16T06:57:00;0.80;;;0.80;;
44165;SDS011;30476;53.468;9.826;2024-02-16T06:59:26;1.10;;;1.00;;
44165;SDS011;30476;53.468;9.826;2024-02-16T07:01:52;0.93;;;0.90;;
44165;SDS011;30476;53.468;9.826;2024-02-16T07:04:18;1.13;;;0.90;;
44165;SDS011;30476;53.468;9.826;2024-02-16T07:06:44;0.77;;;0.77;;
44165;SDS011;30476;53.468;9.826;2024-02-16T07:09:10;1.10;;;1.00;;
44165;SDS011;30476;53.468;9.826;2024-02-16T07:11:39;0.87;;;0.87;;
44165;SDS011;30476;53.468;9.826;2024-02-16T07:14:05;1.30;;;1.20;;
44165;SDS011;30476;53.468;9.826;2024-02-16T07:16:33;1.10;;;0.90;;
44165;SDS011;30476;53.468;9.826;2024-02-16T07:18:59;4.60;;;0.83;;
44165;SDS011;30476;53.468;9.826;2024-02-16T07:21:25;0.93;;;0.90;;
44165;SDS011;30476;53.468;9.826;2024-02-16T07:23:52;1.77;;;0.67;;
44165;SDS011;30476;53.468;9.826;2024-02-16T07:26:18;1.13;;;1.03;;
44165;SDS011;30476;53.468;9.826;2024-02-16T07:28:44;0.73;;;0.73;;
44165;SDS011;30476;53.468;9.826;2024-02-16T07:31:10;1.10;;;1.00;;
44165;SDS011;30476;53.468;9.826;2024-02-16T07:33:36;1.00;;;0.90;;
44165;SDS011;30476;53.468;9.826;2024-02-16T07:36:02;0.80;;;0.80;;
44165;SDS011;30476;53.468;9.826;2024-02-16T07:38:28;0.73;;;0.73;;
44165;SDS011;30476;53.468;9.826;2024-02-16T07:40:54;0.97;;;0.70;;
44165;SDS011;30476;53.468;9.826;2024-02-16T07:43:20;5.23;;;1.00;;
44165;SDS011;30476;53.468;9.826;2024-02-16T07:45:49;0.80;;;0.77;;
44165;SDS011;30476;53.468;9.826;2024-02-16T07:48:15;1.43;;;0.90;;
44165;SDS011;30476;53.468;9.826;2024-02-16T07:50:41;1.30;;;0.83;;
44165;SDS011;30476;53.468;9.826;2024-02-16T07:53:07;0.80;;;0.70;;
44165;SDS011;30476;53.468;9.826;2024-02-16T07:55:35;0.90;;;0.90;;
44165;SDS011;30476;53.468;9.826;2024-02-16T07:58:00;0.83;;;0.83;;
44165;SDS011;30476;53.468;9.826;2024-02-16T08:00:26;1.00;;;0.90;;
44165;SDS011;30476;53.468;9.826;2024-02-16T08:02:53;2.20;;;1.00;;
44165;SDS011;30476;53.468;9.826;2024-02-16T08:05:19;1.10;;;0.80;;
44165;SDS011;30476;53.468;9.826;2024-02-16T08:07:45;0.70;;;0.70;;
44165;SDS011;30476;53.468;9.826;2024-02-16T08:10:12;0.80;;;0.80;;
44165;SDS011;30476;53.468;9.826;2024-02-16T08:12:38;2.00;;;0.90;;
44165;SDS011;30476;53.468;9.826;2024-02-16T08:15:04;0.60;;;0.60;;
44165;SDS011;30476;53.468;9.826;2024-02-16T08:17:32;2.67;;;0.97;;
44165;SDS011;30476;53.468;9.826;2024-02-16T08:19:59;0.70;;;0.70;;
44165;SDS011;30476;53.468;9.826;2024-02-16T08:22:25;2.10;;;1.00;;
44165;SDS011;30476;53.468;9.826;2024-02-16T08:24:51;1.60;;;0.70;;
44165;SDS011;30476;53.468;9.826;2024-02-16T08:27:17;0.90;;;0.90;;
44165;SDS011;30476;53.468;9.826;2024-02-16T08:29:43;2.03;;;1.00;;
44165;SDS011;30476;53.468;9.826;2024-02-16T08:32:10;0.80;;;0.80;;
44165;SDS011;30476;53.468;9.826;2024-02-16T08:34:36;0.90;;;0.90;;
44165;SDS011;30476;53.468;9.826;2024-02-16T08:37:05;2.40;;;0.83;;
44165;SDS011;30476;53.468;9.826;2024-02-16T08:39:31;1.80;;;0.70;;
44165;SDS011;30476;53.468;9.826;2024-02-16T08:41:59;0.80;;;0.80;;
44165;SDS011;30476;53.468;9.826;2024-02-16T08:44:25;1.20;;;0.83;;
44165;SDS011;30476;53.468;9.826;2024-02-16T08:46:51;1.00;;;0.87;;
44165;SDS011;30476;53.468;9.826;2024-02-16T08:49:18;1.30;;;1.00;;
44165;SDS011;30476;53.468;9.826;2024-02-16T08:51:44;2.60;;;0.97;;
44165;SDS011;30476;53.468;9.826;2024-02-16T08:54:10;1.77;;;1.00;;
44165;SDS011;30476;53.468;9.826;2024-02-16T08:56:36;1.13;;;0.73;;
44165;SDS011;30476;53.468;9.826;2024-02-16T08:59:05;1.27;;;0.80;;
44165;SDS011;30476;53.468;9.826;2024-02-16T09:01:31;1.10;;;1.00;;
44165;SDS011;30476;53.468;9.826;2024-02-16T09:03:58;1.30;;;1.20;;
44165;SDS011;30476;53.468;9.826;2024-02-16T09:06:24;1.10;;;0.90;;
44165;SDS011;30476;53.468;9.826;2024-02-16T09:08:49;1.43;;;1.00;;
44165;SDS011;30476;53.468;9.826;2024-02-16T09:11:15;1.07;;;0.90;;
44165;SDS011;30476;53.468;9.826;2024-02-16T09:13:42;2.17;;;0.80;;
44165;SDS011;30476;53.468;9.826;2024-02-16T09:16:08;0.80;;;0.80;;
44165;SDS011;30476;53.468;9.826;2024-02-16T09:18:34;1.17;;;0.93;;
44165;SDS011;30476;53.468;9.826;2024-02-16T09:21:02;1.27;;;1.00;;
44165;SDS011;30476;53.468;9.826;2024-02-16T09:23:28;0.80;;;0.77;;
44165;SDS011;30476;53.468;9.826;2024-02-16T09:25:54;0.80;;;0.80;;
44165;SDS011;30476;53.468;9.826;2024-02-16T09:28:20;0.90;;;0.90;;
44165;SDS011;30476;53.468;9.826;2024-02-16T09:30:46;0.83;;;0.83;;
44165;SDS011;30476;53.468;9.826;2024-02-16T09:33:12;1.53;;;0.70;;
44165;SDS011;30476;53.468;9.826;2024-02-16T09:35:41;0.83;;;0.83;;
44165;SDS011;30476;53.468;9.826;2024-02-16T09:38:07;0.70;;;0.70;;
44165;SDS011;30476;53.468;9.826;2024-02-16T09:40:36;1.00;;;1.00;;
44165;SDS011;30476;53.468;9.826;2024-02-16T09:43:02;0.80;;;0.80;;
44165;SDS011;30476;53.468;9.826;2024-02-16T09:45:28;1.13;;;0.73;;
44165;SDS011;30476;53.468;9.826;2024-02-16T09:47:55;0.90;;;0.90;;
44165;SDS011;30476;53.468;9.826;2024-02-16T09:50:22;0.80;;;0.80;;
44165;SDS011;30476;53.468;9.826;2024-02-16T09:52:49;1.23;;;0.87;;
44165;SDS011;30476;53.468;9.826;2024-02-16T09:55:16;1.30;;;0.77;;
44165;SDS011;30476;53.468;9.826;2024-02-16T09:57:43;0.80;;;0.77;;
44165;SDS011;30476;53.468;9.826;2024-02-16T10:00:09;0.77;;;0.77;;
44165;SDS011;30476;53.468;9.826;2024-02-16T10:02:43;0.87;;;0.87;;
44165;SDS011;30476;53.468;9.826;2024-02-16T10:05:11;0.80;;;0.80;;
44165;SDS011;30476;53.468;9.826;2024-02-16T10:07:38;2.27;;;0.80;;
44165;SDS011;30476;53.468;9.826;2024-02-16T10:10:05;0.87;;;0.60;;
44165;SDS011;30476;53.468;9.826;2024-02-16T10:12:31;0.73;;;0.73;;
44165;SDS011;30476;53.468;9.826;2024-02-16T10:14:57;0.70;;;0.70;;
44165;SDS011;30476;53.468;9.826;2024-02-16T10:17:24;0.80;;;0.60;;
44165;SDS011;30476;53.468;9.826;2024-02-16T10:19:59;0.93;;;0.80;;
44165;SDS011;30476;53.468;9.826;2024-02-16T10:22:31;1.03;;;0.93;;
44165;SDS011;30476;53.468;9.826;2024-02-16T10:25:09;1.77;;;0.80;;
44165;SDS011;30476;53.468;9.826;2024-02-16T10:27:38;1.83;;;0.90;;
44165;SDS011;30476;53.468;9.826;2024-02-16T10:30:06;0.83;;;0.80;;
44165;SDS011;30476;53.468;9.826;2024-02-16T10:32:36;1.00;;;0.90;;
44165;SDS011;30476;53.468;9.826;2024-02-16T10:35:03;0.70;;;0.70;;
44165;SDS011;30476;53.468;9.826;2024-02-16T10:37:31;1.00;;;0.90;;
44165;SDS011;30476;53.468;9.826;2024-02-16T10:39:57;0.93;;;0.77;;
44165;SDS011;30476;53.468;9.826;2024-02-16T10:42:25;0.80;;;0.80;;
44165;SDS011;30476;53.468;9.826;2024-02-16T10:44:53;0.90;;;0.83;;
44165;SDS011;30476;53.468;9.826;2024-02-16T10:47:18;3.47;;;1.00;;
44165;SDS011;30476;53.468;9.826;2024-02-16T10:49:44;1.83;;;0.90;;
44165;SDS011;30476;53.468;9.826;2024-02-16T10:52:10;0.90;;;0.77;;
44165;SDS011;30476;53.468;9.826;2024-02-16T10:58:00;0.80;;;0.80;;
44165;SDS011;30476;53.468;9.826;2024-02-16T11:00:25;0.90;;;0.90;;
44165;SDS011;30476;53.468;9.826;2024-02-16T11:05:31;1.00;;;0.80;;
44165;SDS011;30476;53.468;9.826;2024-02-16T11:07:59;1.57;;;0.80;;
44165;SDS011;30476;53.468;9.826;2024-02-16T11:10:26;1.10;;;0.90;;
44165;SDS011;30476;53.468;9.826;2024-02-16T11:12:52;1.17;;;1.03;;
44165;SDS011;30476;53.468;9.826;2024-02-16T11:15:31;1.10;;;0.90;;
44165;SDS011;30476;53.468;9.826;2024-02-16T11:18:01;1.00;;;0.90;;
44165;SDS011;30476;53.468;9.826;2024-02-16T11:20:27;0.97;;;0.90;;
44165;SDS011;30476;53.468;9.826;2024-02-16T11:22:53;1.00;;;0.90;;
44165;SDS011;30476;53.468;9.826;2024-02-16T11:25:30;0.97;;;0.80;;
44165;SDS011;30476;53.468;9.826;2024-02-16T11:27:57;1.30;;;1.20;;
44165;SDS011;30476;53.468;9.826;2024-02-16T11:30:24;0.90;;;0.90;;
44165;SDS011;30476;53.468;9.826;2024-02-16T11:32:51;0.90;;;0.90;;
44165;SDS011;30476;53.468;9.826;2024-02-16T11:35:17;0.80;;;0.80;;
44165;SDS011;30476;53.468;9.826;2024-02-16T11:37:43;1.03;;;1.00;;
44165;SDS011;30476;53.468;9.826;2024-02-16T11:40:11;1.30;;;1.10;;
44165;SDS011;30476;53.468;9.826;2024-02-16T11:42:38;0.93;;;0.93;;
44165;SDS011;30476;53.468;9.826;2024-02-16T11:45:04;4.93;;;1.20;;
44165;SDS011;30476;53.468;9.826;2024-02-16T11:47:31;1.03;;;0.93;;
44165;SDS011;30476;53.468;9.826;2024-02-16T11:50:00;1.13;;;1.03;;
44165;SDS011;30476;53.468;9.826;2024-02-16T11:52:27;1.10;;;0.90;;
44165;SDS011;30476;53.468;9.826;2024-02-16T11:54:54;1.20;;;1.10;;
44165;SDS011;30476;53.468;9.826;2024-02-16T11:57:21;4.60;;;1.10;;
44165;SDS011;30476;53.468;9.826;2024-02-16T11:59:47;1.30;;;1.00;;
44165;SDS011;30476;53.468;9.826;2024-02-16T12:02:17;2.67;;;1.03;;
44165;SDS011;30476;53.468;9.826;2024-02-16T12:04:47;4.93;;;1.07;;
44165;SDS011;30476;53.468;9.826;2024-02-16T12:07:13;2.00;;;1.00;;
44165;SDS011;30476;53.468;9.826;2024-02-16T12:09:42;1.70;;;1.03;;
44165;SDS011;30476;53.468;9.826;2024-02-16T12:12:07;1.00;;;1.00;;
44165;SDS011;30476;53.468;9.826;2024-02-16T12:14:34;1.60;;;1.03;;
44165;SDS011;30476;53.468;9.826;2024-02-16T12:17:00;1.00;;;1.00;;
44165;SDS011;30476;53.468;9.826;2024-02-16T12:19:26;2.13;;;1.10;;
44165;SDS011;30476;53.468;9.826;2024-02-16T12:21:52;1.27;;;1.17;;
44165;SDS011;30476;53.468;9.826;2024-02-16T12:24:18;1.33;;;1.17;;
44165;SDS011;30476;53.468;9.826;2024-02-16T12:26:45;0.90;;;0.90;;
44165;SDS011;30476;53.468;9.826;2024-02-16T12:29:11;1.47;;;1.10;;
44165;SDS011;30476;53.468;9.826;2024-02-16T12:31:41;1.30;;;1.13;;
44165;SDS011;30476;53.468;9.826;2024-02-16T12:34:08;1.20;;;1.10;;
44165;SDS011;30476;53.468;9.826;2024-02-16T12:36:35;1.40;;;1.30;;
44165;SDS011;30476;53.468;9.826;2024-02-16T12:39:01;2.97;;;1.10;;
44165;SDS011;30476;53.468;9.826;2024-02-16T12:41:29;1.50;;;1.40;;
44165;SDS011;30476;53.468;9.826;2024-02-16T12:43:56;2.13;;;1.20;;
44165;SDS011;30476;53.468;9.826;2024-02-16T12:46:21;2.77;;;1.37;;
44165;SDS011;30476;53.468;9.826;2024-02-16T12:48:47;1.00;;;0.90;;
44165;SDS011;30476;53.468;9.826;2024-02-16T12:51:13;3.40;;;1.13;;
44165;SDS011;30476;53.468;9.826;2024-02-16T12:53:39;1.67;;;1.43;;
44165;SDS011;30476;53.468;9.826;2024-02-16T12:56:08;1.30;;;1.20;;
44165;SDS011;30476;53.468;9.826;2024-02-16T12:58:35;1.57;;;1.30;;
44165;SDS011;30476;53.468;9.826;2024-02-16T13:01:05;3.23;;;1.40;;
44165;SDS011;30476;53.468;9.826;2024-02-16T13:03:33;1.83;;;1.20;;
44165;SDS011;30476;53.468;9.826;2024-02-16T13:06:00;2.40;;;1.27;;
44165;SDS011;30476;53.468;9.826;2024-02-16T13:08:26;1.60;;;1.43;;
44165;SDS011;30476;53.468;9.826;2024-02-16T13:10:52;1.50;;;1.40;;
44165;SDS011;30476;53.468;9.826;2024-02-16T13:13:18;2.37;;;1.50;;
44165;SDS011;30476;53.468;9.826;2024-02-16T13:15:44;1.40;;;1.30;;
44165;SDS011;30476;53.468;9.826;2024-02-16T13:18:09;1.00;;;1.00;;
44165;SDS011;30476;53.468;9.826;2024-02-16T13:20:35;1.27;;;1.17;;
44165;SDS011;30476;53.468;9.826;2024-02-16T13:23:01;1.50;;;1.30;;
44165;SDS011;30476;53.468;9.826;2024-02-16T13:25:27;1.40;;;1.30;;
44165;SDS011;30476;53.468;9.826;2024-02-16T13:27:52;1.43;;;1.33;;
44165;SDS011;30476;53.468;9.826;2024-02-16T13:30:18;1.77;;;1.67;;
44165;SDS011;30476;53.468;9.826;2024-02-16T13:32:44;2.77;;;1.90;;
44165;SDS011;30476;53.468;9.826;2024-02-16T13:35:10;1.50;;;1.40;;
44165;SDS011;30476;53.468;9.826;2024-02-16T13:37:36;1.43;;;1.33;;
44165;SDS011;30476;53.468;9.826;2024-02-16T13:40:02;1.63;;;1.53;;
44165;SDS011;30476;53.468;9.826;2024-02-16T13:42:35;1.73;;;1.63;;
44165;SDS011;30476;53.468;9.826;2024-02-16T13:45:02;1.87;;;1.73;;
44165;SDS011;30476;53.468;9.826;2024-02-16T13:47:28;1.70;;;1.60;;
44165;SDS011;30476;53.468;9.826;2024-02-16T13:49:54;2.00;;;1.80;;
44165;SDS011;30476;53.468;9.826;2024-02-16T13:52:22;2.13;;;1.73;;
44165;SDS011;30476;53.468;9.826;2024-02-16T13:54:49;2.87;;;2.00;;
44165;SDS011;30476;53.468;9.826;2024-02-16T13:57:15;4.20;;;2.10;;
44165;SDS011;30476;53.468;9.826;2024-02-16T13:59:42;3.33;;;1.90;;
44165;SDS011;30476;53.468;9.826;2024-02-16T14:02:08;1.63;;;1.43;;
44165;SDS011;30476;53.468;9.826;2024-02-16T14:04:35;1.63;;;1.53;;
44165;SDS011;30476;53.468;9.826;2024-02-16T14:07:01;1.53;;;1.43;;
44165;SDS011;30476;53.468;9.826;2024-02-16T14:09:27;6.87;;;1.87;;
44165;SDS011;30476;53.468;9.826;2024-02-16T14:11:53;2.00;;;1.83;;
44165;SDS011;30476;53.468;9.826;2024-02-16T14:14:20;2.20;;;1.47;;
44165;SDS011;30476;53.468;9.826;2024-02-16T14:16:46;2.20;;;1.90;;
44165;SDS011;30476;53.468;9.826;2024-02-16T14:19:13;4.97;;;2.03;;
44165;SDS011;30476;53.468;9.826;2024-02-16T14:21:38;4.43;;;2.53;;
44165;SDS011;30476;53.468;9.826;2024-02-16T14:24:04;5.63;;;2.23;;
44165;SDS011;30476;53.468;9.826;2024-02-16T14:26:30;2.13;;;2.03;;
44165;SDS011;30476;53.468;9.826;2024-02-16T14:28:56;1.80;;;1.70;;
44165;SDS011;30476;53.468;9.826;2024-02-16T14:31:22;2.53;;;1.70;;
44165;SDS011;30476;53.468;9.826;2024-02-16T14:33:48;2.30;;;1.73;;
44165;SDS011;30476;53.468;9.826;2024-02-16T14:36:14;3.10;;;1.90;;
44165;SDS011;30476;53.468;9.826;2024-02-16T14:38:40;2.63;;;1.73;;
44165;SDS011;30476;53.468;9.826;2024-02-16T14:41:06;3.77;;;1.63;;
44165;SDS011;30476;53.468;9.826;2024-02-16T14:43:32;4.23;;;1.90;;
44165;SDS011;30476;53.468;9.826;2024-02-16T14:45:58;2.30;;;2.10;;
44165;SDS011;30476;53.468;9.826;2024-02-16T14:48:25;1.53;;;1.43;;
44165;SDS011;30476;53.468;9.826;2024-02-16T14:50:51;2.27;;;2.07;;